sensor_id;sensor_type;location;lat;lon;timestamp;P1;durP1;ratioP1;P2;durP2;ratioP2
39848;SDS011;25518;47.878;15.914;2023-07-13T00:01:54;2.38;;;1.50;;
39848;SDS011;25518;47.878;15.914;2023-07-13T00:04:43;3.88;;;1.58;;
39848;SDS011;25518;47.878;15.914;2023-07-13T00:07:34;2.20;;;1.15;;
39848;SDS011;25518;47.878;15.914;2023-07-13T00:10:25;3.13;;;1.52;;
39848;SDS011;25518;47.878;15.914;2023-07-13T00:13:15;2.67;;;1.70;;
39848;SDS011;25518;47.878;15.914;2023-07-13T00:16:07;2.63;;;1.20;;
39848;SDS011;25518;47.878;15.914;2023-07-13T00:18:57;2.15;;;1.20;;
39848;SDS011;25518;47.878;15.914;2023-07-13T00:21:48;1.95;;;1.17;;
39848;SDS011;25518;47.878;15.914;2023-07-13T00:24:38;1.70;;;0.90;;
39848;SDS011;25518;47.878;15.914;2023-07-13T00:27:30;1.45;;;0.80;;
39848;SDS011;25518;47.878;15.914;2023-07-13T00:30:20;2.72;;;1.10;;
39848;SDS011;25518;47.878;15.914;2023-07-13T00:33:11;2.55;;;1.08;;
39848;SDS011;25518;47.878;15.914;2023-07-13T00:36:00;2.40;;;1.02;;
39848;SDS011;25518;47.878;15.914;2023-07-13T00:38:50;2.40;;;0.90;;
39848;SDS011;25518;47.878;15.914;2023-07-13T00:41:40;1.88;;;1.00;;
39848;SDS011;25518;47.878;15.914;2023-07-13T00:44:29;2.15;;;0.80;;
39848;SDS011;25518;47.878;15.914;2023-07-13T00:47:19;3.97;;;1.00;;
39848;SDS011;25518;47.878;15.914;2023-07-13T00:50:10;1.85;;;0.68;;
39848;SDS011;25518;47.878;15.914;2023-07-13T00:53:02;1.45;;;0.80;;
39848;SDS011;25518;47.878;15.914;2023-07-13T00:55:52;1.52;;;0.90;;
39848;SDS011;25518;47.878;15.914;2023-07-13T00:58:43;2.00;;;0.68;;
39848;SDS011;25518;47.878;15.914;2023-07-13T01:01:34;2.53;;;0.80;;
39848;SDS011;25518;47.878;15.914;2023-07-13T01:04:26;3.37;;;0.70;;
39848;SDS011;25518;47.878;15.914;2023-07-13T01:07:15;1.95;;;0.90;;
39848;SDS011;25518;47.878;15.914;2023-07-13T01:10:07;2.00;;;0.80;;
39848;SDS011;25518;47.878;15.914;2023-07-13T01:13:17;1.17;;;0.70;;
39848;SDS011;25518;47.878;15.914;2023-07-13T01:16:11;1.30;;;0.70;;
39848;SDS011;25518;47.878;15.914;2023-07-13T01:19:12;1.48;;;0.75;;
39848;SDS011;25518;47.878;15.914;2023-07-13T01:22:15;1.25;;;0.70;;
39848;SDS011;25518;47.878;15.914;2023-07-13T01:25:06;1.25;;;0.80;;
39848;SDS011;25518;47.878;15.914;2023-07-13T01:27:57;1.60;;;0.93;;
39848;SDS011;25518;47.878;15.914;2023-07-13T01:30:46;1.60;;;0.70;;
39848;SDS011;25518;47.878;15.914;2023-07-13T01:33:38;1.20;;;0.73;;
39848;SDS011;25518;47.878;15.914;2023-07-13T01:36:28;2.58;;;1.05;;
39848;SDS011;25518;47.878;15.914;2023-07-13T01:39:19;2.08;;;0.98;;
39848;SDS011;25518;47.878;15.914;2023-07-13T01:42:10;1.77;;;0.88;;
39848;SDS011;25518;47.878;15.914;2023-07-13T01:45:00;1.70;;;0.80;;
39848;SDS011;25518;47.878;15.914;2023-07-13T01:47:50;1.37;;;0.90;;
39848;SDS011;25518;47.878;15.914;2023-07-13T01:50:39;1.63;;;0.87;;
39848;SDS011;25518;47.878;15.914;2023-07-13T01:53:29;1.58;;;0.90;;
39848;SDS011;25518;47.878;15.914;2023-07-13T01:56:18;2.10;;;0.90;;
39848;SDS011;25518;47.878;15.914;2023-07-13T01:59:08;2.22;;;1.00;;
39848;SDS011;25518;47.878;15.914;2023-07-13T02:01:58;2.33;;;0.90;;
39848;SDS011;25518;47.878;15.914;2023-07-13T02:04:48;2.27;;;0.97;;
39848;SDS011;25518;47.878;15.914;2023-07-13T02:07:38;2.67;;;1.10;;
39848;SDS011;25518;47.878;15.914;2023-07-13T02:10:28;2.05;;;0.90;;
39848;SDS011;25518;47.878;15.914;2023-07-13T02:13:17;3.35;;;1.20;;
39848;SDS011;25518;47.878;15.914;2023-07-13T02:16:07;1.43;;;0.80;;
39848;SDS011;25518;47.878;15.914;2023-07-13T02:18:57;6.40;;;1.10;;
39848;SDS011;25518;47.878;15.914;2023-07-13T02:21:47;2.30;;;1.17;;
39848;SDS011;25518;47.878;15.914;2023-07-13T02:24:37;2.57;;;1.00;;
39848;SDS011;25518;47.878;15.914;2023-07-13T02:27:27;1.83;;;1.00;;
39848;SDS011;25518;47.878;15.914;2023-07-13T02:30:17;3.80;;;1.30;;
39848;SDS011;25518;47.878;15.914;2023-07-13T02:33:07;4.10;;;1.65;;
39848;SDS011;25518;47.878;15.914;2023-07-13T02:35:56;4.40;;;1.73;;
39848;SDS011;25518;47.878;15.914;2023-07-13T02:38:46;3.05;;;1.30;;
39848;SDS011;25518;47.878;15.914;2023-07-13T02:41:38;3.90;;;1.80;;
39848;SDS011;25518;47.878;15.914;2023-07-13T02:44:28;3.17;;;1.35;;
39848;SDS011;25518;47.878;15.914;2023-07-13T02:47:17;3.85;;;1.58;;
39848;SDS011;25518;47.878;15.914;2023-07-13T02:50:07;3.90;;;1.35;;
39848;SDS011;25518;47.878;15.914;2023-07-13T02:52:58;4.20;;;1.50;;
39848;SDS011;25518;47.878;15.914;2023-07-13T02:55:47;5.03;;;1.83;;
39848;SDS011;25518;47.878;15.914;2023-07-13T02:58:37;4.10;;;1.40;;
39848;SDS011;25518;47.878;15.914;2023-07-13T03:18:22;4.90;;;1.30;;
39848;SDS011;25518;47.878;15.914;2023-07-13T03:21:12;3.22;;;1.08;;
39848;SDS011;25518;47.878;15.914;2023-07-13T03:24:02;3.08;;;1.20;;
39848;SDS011;25518;47.878;15.914;2023-07-13T03:26:51;6.07;;;1.45;;
39848;SDS011;25518;47.878;15.914;2023-07-13T03:29:41;2.45;;;0.95;;
39848;SDS011;25518;47.878;15.914;2023-07-13T03:32:31;3.85;;;1.42;;
39848;SDS011;25518;47.878;15.914;2023-07-13T03:35:21;4.32;;;1.58;;
39848;SDS011;25518;47.878;15.914;2023-07-13T03:38:10;4.85;;;1.48;;
39848;SDS011;25518;47.878;15.914;2023-07-13T03:41:00;4.53;;;1.20;;
39848;SDS011;25518;47.878;15.914;2023-07-13T03:43:50;4.65;;;1.40;;
39848;SDS011;25518;47.878;15.914;2023-07-13T03:46:40;4.10;;;1.70;;
39848;SDS011;25518;47.878;15.914;2023-07-13T03:49:29;5.15;;;1.65;;
39848;SDS011;25518;47.878;15.914;2023-07-13T03:52:19;3.95;;;1.13;;
39848;SDS011;25518;47.878;15.914;2023-07-13T03:55:09;2.42;;;1.13;;
39848;SDS011;25518;47.878;15.914;2023-07-13T03:58:00;5.30;;;1.40;;
39848;SDS011;25518;47.878;15.914;2023-07-13T04:01:10;2.80;;;1.20;;
39848;SDS011;25518;47.878;15.914;2023-07-13T04:04:01;3.63;;;1.50;;
39848;SDS011;25518;47.878;15.914;2023-07-13T04:06:50;4.32;;;1.67;;
39848;SDS011;25518;47.878;15.914;2023-07-13T04:09:42;4.20;;;1.10;;
39848;SDS011;25518;47.878;15.914;2023-07-13T04:12:31;3.87;;;1.13;;
39848;SDS011;25518;47.878;15.914;2023-07-13T04:15:21;2.00;;;1.10;;
39848;SDS011;25518;47.878;15.914;2023-07-13T04:18:11;2.00;;;1.10;;
39848;SDS011;25518;47.878;15.914;2023-07-13T04:21:00;3.33;;;1.20;;
39848;SDS011;25518;47.878;15.914;2023-07-13T04:23:50;3.60;;;1.20;;
39848;SDS011;25518;47.878;15.914;2023-07-13T04:26:40;4.68;;;1.63;;
39848;SDS011;25518;47.878;15.914;2023-07-13T04:29:29;2.55;;;1.25;;
39848;SDS011;25518;47.878;15.914;2023-07-13T04:32:19;6.93;;;2.40;;
39848;SDS011;25518;47.878;15.914;2023-07-13T04:35:08;13.98;;;7.70;;
39848;SDS011;25518;47.878;15.914;2023-07-13T04:37:58;6.38;;;2.80;;
39848;SDS011;25518;47.878;15.914;2023-07-13T04:40:48;5.22;;;3.15;;
39848;SDS011;25518;47.878;15.914;2023-07-13T04:43:37;8.77;;;2.78;;
39848;SDS011;25518;47.878;15.914;2023-07-13T04:46:27;4.18;;;1.80;;
39848;SDS011;25518;47.878;15.914;2023-07-13T04:49:16;4.78;;;1.70;;
39848;SDS011;25518;47.878;15.914;2023-07-13T04:52:07;4.38;;;2.60;;
39848;SDS011;25518;47.878;15.914;2023-07-13T04:54:57;5.10;;;2.08;;
39848;SDS011;25518;47.878;15.914;2023-07-13T04:57:46;4.45;;;1.90;;
39848;SDS011;25518;47.878;15.914;2023-07-13T05:00:36;2.55;;;1.23;;
39848;SDS011;25518;47.878;15.914;2023-07-13T05:03:26;3.38;;;1.33;;
39848;SDS011;25518;47.878;15.914;2023-07-13T05:06:16;2.75;;;1.52;;
39848;SDS011;25518;47.878;15.914;2023-07-13T05:09:05;3.45;;;1.20;;
39848;SDS011;25518;47.878;15.914;2023-07-13T05:11:56;3.88;;;1.30;;
39848;SDS011;25518;47.878;15.914;2023-07-13T05:14:45;2.60;;;1.52;;
39848;SDS011;25518;47.878;15.914;2023-07-13T05:17:35;3.47;;;1.40;;
39848;SDS011;25518;47.878;15.914;2023-07-13T05:20:24;3.58;;;1.35;;
39848;SDS011;25518;47.878;15.914;2023-07-13T05:23:14;3.35;;;1.30;;
39848;SDS011;25518;47.878;15.914;2023-07-13T05:26:04;4.28;;;1.30;;
39848;SDS011;25518;47.878;15.914;2023-07-13T05:28:54;3.17;;;1.40;;
39848;SDS011;25518;47.878;15.914;2023-07-13T05:31:44;2.50;;;1.20;;
39848;SDS011;25518;47.878;15.914;2023-07-13T05:34:33;3.50;;;1.65;;
39848;SDS011;25518;47.878;15.914;2023-07-13T05:37:23;3.25;;;1.42;;
39848;SDS011;25518;47.878;15.914;2023-07-13T05:40:12;3.42;;;1.50;;
39848;SDS011;25518;47.878;15.914;2023-07-13T05:43:02;2.55;;;1.33;;
39848;SDS011;25518;47.878;15.914;2023-07-13T05:45:53;2.70;;;1.17;;
39848;SDS011;25518;47.878;15.914;2023-07-13T05:48:45;3.88;;;1.27;;
39848;SDS011;25518;47.878;15.914;2023-07-13T05:51:35;2.13;;;1.10;;
39848;SDS011;25518;47.878;15.914;2023-07-13T05:54:25;1.73;;;1.00;;
39848;SDS011;25518;47.878;15.914;2023-07-13T05:57:15;2.25;;;0.95;;
39848;SDS011;25518;47.878;15.914;2023-07-13T06:00:05;2.05;;;1.20;;
39848;SDS011;25518;47.878;15.914;2023-07-13T06:02:55;4.72;;;1.42;;
39848;SDS011;25518;47.878;15.914;2023-07-13T06:05:47;3.55;;;0.90;;
39848;SDS011;25518;47.878;15.914;2023-07-13T06:08:36;2.40;;;1.10;;
39848;SDS011;25518;47.878;15.914;2023-07-13T06:11:26;2.97;;;1.10;;
39848;SDS011;25518;47.878;15.914;2023-07-13T06:14:19;1.77;;;1.00;;
39848;SDS011;25518;47.878;15.914;2023-07-13T06:17:09;2.47;;;1.08;;
39848;SDS011;25518;47.878;15.914;2023-07-13T06:19:58;2.13;;;1.10;;
39848;SDS011;25518;47.878;15.914;2023-07-13T06:22:48;2.28;;;0.63;;
39848;SDS011;25518;47.878;15.914;2023-07-13T06:25:37;2.08;;;1.08;;
39848;SDS011;25518;47.878;15.914;2023-07-13T06:28:28;3.08;;;1.13;;
39848;SDS011;25518;47.878;15.914;2023-07-13T06:31:20;3.20;;;0.90;;
39848;SDS011;25518;47.878;15.914;2023-07-13T06:34:09;1.65;;;1.00;;
39848;SDS011;25518;47.878;15.914;2023-07-13T06:36:59;1.80;;;0.90;;
39848;SDS011;25518;47.878;15.914;2023-07-13T06:39:49;1.35;;;0.80;;
39848;SDS011;25518;47.878;15.914;2023-07-13T06:42:38;3.25;;;0.90;;
39848;SDS011;25518;47.878;15.914;2023-07-13T06:45:28;2.28;;;0.88;;
39848;SDS011;25518;47.878;15.914;2023-07-13T06:48:18;1.13;;;0.70;;
39848;SDS011;25518;47.878;15.914;2023-07-13T06:51:08;1.63;;;0.77;;
39848;SDS011;25518;47.878;15.914;2023-07-13T06:53:58;1.60;;;0.90;;
39848;SDS011;25518;47.878;15.914;2023-07-13T06:56:48;1.92;;;0.82;;
39848;SDS011;25518;47.878;15.914;2023-07-13T06:59:37;3.28;;;1.13;;
39848;SDS011;25518;47.878;15.914;2023-07-13T07:02:27;2.88;;;1.70;;
39848;SDS011;25518;47.878;15.914;2023-07-13T07:05:17;2.42;;;1.08;;
39848;SDS011;25518;47.878;15.914;2023-07-13T07:08:07;1.83;;;0.95;;
39848;SDS011;25518;47.878;15.914;2023-07-13T07:10:56;1.17;;;0.70;;
39848;SDS011;25518;47.878;15.914;2023-07-13T07:13:46;1.92;;;0.65;;
39848;SDS011;25518;47.878;15.914;2023-07-13T07:16:36;1.90;;;0.70;;
39848;SDS011;25518;47.878;15.914;2023-07-13T07:19:27;0.93;;;0.52;;
39848;SDS011;25518;47.878;15.914;2023-07-13T07:22:18;0.77;;;0.70;;
39848;SDS011;25518;47.878;15.914;2023-07-13T07:25:08;1.00;;;0.70;;
39848;SDS011;25518;47.878;15.914;2023-07-13T07:27:58;1.23;;;0.68;;
39848;SDS011;25518;47.878;15.914;2023-07-13T07:30:48;1.90;;;0.70;;
39848;SDS011;25518;47.878;15.914;2023-07-13T07:33:41;1.60;;;0.73;;
39848;SDS011;25518;47.878;15.914;2023-07-13T07:36:32;2.15;;;0.80;;
39848;SDS011;25518;47.878;15.914;2023-07-13T07:39:21;1.10;;;0.70;;
39848;SDS011;25518;47.878;15.914;2023-07-13T07:42:11;1.10;;;0.68;;
39848;SDS011;25518;47.878;15.914;2023-07-13T07:45:01;1.73;;;0.63;;
39848;SDS011;25518;47.878;15.914;2023-07-13T07:47:51;1.67;;;0.70;;
39848;SDS011;25518;47.878;15.914;2023-07-13T07:50:40;2.38;;;0.90;;
39848;SDS011;25518;47.878;15.914;2023-07-13T07:53:30;1.13;;;0.60;;
39848;SDS011;25518;47.878;15.914;2023-07-13T07:56:19;1.02;;;0.70;;
39848;SDS011;25518;47.878;15.914;2023-07-13T07:59:09;1.40;;;0.70;;
39848;SDS011;25518;47.878;15.914;2023-07-13T08:01:59;1.20;;;0.80;;
39848;SDS011;25518;47.878;15.914;2023-07-13T08:04:51;1.42;;;0.85;;
39848;SDS011;25518;47.878;15.914;2023-07-13T08:07:41;1.10;;;0.75;;
39848;SDS011;25518;47.878;15.914;2023-07-13T08:10:31;1.60;;;0.70;;
39848;SDS011;25518;47.878;15.914;2023-07-13T08:13:20;4.40;;;1.05;;
39848;SDS011;25518;47.878;15.914;2023-07-13T08:16:10;1.50;;;0.70;;
39848;SDS011;25518;47.878;15.914;2023-07-13T08:19:00;0.93;;;0.52;;
39848;SDS011;25518;47.878;15.914;2023-07-13T08:21:50;2.67;;;0.85;;
39848;SDS011;25518;47.878;15.914;2023-07-13T08:24:39;1.67;;;0.80;;
39848;SDS011;25518;47.878;15.914;2023-07-13T08:27:31;1.70;;;0.70;;
39848;SDS011;25518;47.878;15.914;2023-07-13T08:30:20;1.10;;;0.60;;
39848;SDS011;25518;47.878;15.914;2023-07-13T08:33:10;1.38;;;0.80;;
39848;SDS011;25518;47.878;15.914;2023-07-13T08:36:00;1.17;;;0.70;;
39848;SDS011;25518;47.878;15.914;2023-07-13T08:38:49;1.95;;;0.70;;
39848;SDS011;25518;47.878;15.914;2023-07-13T08:41:39;0.90;;;0.55;;
39848;SDS011;25518;47.878;15.914;2023-07-13T08:44:32;3.45;;;1.02;;
39848;SDS011;25518;47.878;15.914;2023-07-13T08:47:28;2.17;;;0.90;;
39848;SDS011;25518;47.878;15.914;2023-07-13T08:50:23;2.55;;;0.90;;
39848;SDS011;25518;47.878;15.914;2023-07-13T08:53:17;1.95;;;0.73;;
39848;SDS011;25518;47.878;15.914;2023-07-13T08:56:20;1.33;;;0.82;;
39848;SDS011;25518;47.878;15.914;2023-07-13T08:59:15;1.10;;;0.75;;
39848;SDS011;25518;47.878;15.914;2023-07-13T09:05:22;1.90;;;0.70;;
39848;SDS011;25518;47.878;15.914;2023-07-13T09:11:35;1.52;;;0.82;;
39848;SDS011;25518;47.878;15.914;2023-07-13T09:14:47;2.60;;;1.02;;
39848;SDS011;25518;47.878;15.914;2023-07-13T09:17:41;2.13;;;0.95;;
39848;SDS011;25518;47.878;15.914;2023-07-13T09:20:46;1.40;;;0.80;;
39848;SDS011;25518;47.878;15.914;2023-07-13T09:23:40;1.55;;;0.90;;
39848;SDS011;25518;47.878;15.914;2023-07-13T09:26:30;1.97;;;1.00;;
39848;SDS011;25518;47.878;15.914;2023-07-13T09:29:31;1.60;;;0.90;;
39848;SDS011;25518;47.878;15.914;2023-07-13T09:32:23;1.88;;;1.10;;
39848;SDS011;25518;47.878;15.914;2023-07-13T09:35:17;2.92;;;1.20;;
39848;SDS011;25518;47.878;15.914;2023-07-13T09:47:03;2.92;;;1.58;;
39848;SDS011;25518;47.878;15.914;2023-07-13T09:50:15;2.40;;;1.08;;
39848;SDS011;25518;47.878;15.914;2023-07-13T09:53:11;2.95;;;1.33;;
39848;SDS011;25518;47.878;15.914;2023-07-13T09:56:02;3.22;;;1.40;;
39848;SDS011;25518;47.878;15.914;2023-07-13T09:58:52;2.72;;;1.20;;
39848;SDS011;25518;47.878;15.914;2023-07-13T10:01:42;2.40;;;1.40;;
39848;SDS011;25518;47.878;15.914;2023-07-13T10:04:33;2.00;;;1.05;;
39848;SDS011;25518;47.878;15.914;2023-07-13T10:07:23;2.00;;;1.17;;
39848;SDS011;25518;47.878;15.914;2023-07-13T10:10:14;3.88;;;1.15;;
39848;SDS011;25518;47.878;15.914;2023-07-13T10:13:21;2.63;;;1.20;;
39848;SDS011;25518;47.878;15.914;2023-07-13T10:16:16;2.00;;;0.90;;
39848;SDS011;25518;47.878;15.914;2023-07-13T10:19:10;2.45;;;1.25;;
39848;SDS011;25518;47.878;15.914;2023-07-13T10:22:12;2.17;;;1.17;;
39848;SDS011;25518;47.878;15.914;2023-07-13T10:25:15;2.10;;;1.08;;
39848;SDS011;25518;47.878;15.914;2023-07-13T10:28:26;2.38;;;1.15;;
39848;SDS011;25518;47.878;15.914;2023-07-13T10:31:19;3.50;;;1.30;;
39848;SDS011;25518;47.878;15.914;2023-07-13T10:34:10;3.10;;;1.30;;
39848;SDS011;25518;47.878;15.914;2023-07-13T10:37:02;3.20;;;1.10;;
39848;SDS011;25518;47.878;15.914;2023-07-13T10:39:54;2.58;;;1.20;;
39848;SDS011;25518;47.878;15.914;2023-07-13T10:42:46;2.33;;;1.30;;
39848;SDS011;25518;47.878;15.914;2023-07-13T10:45:41;3.35;;;1.35;;
39848;SDS011;25518;47.878;15.914;2023-07-13T10:48:32;2.80;;;1.40;;
39848;SDS011;25518;47.878;15.914;2023-07-13T10:51:25;2.97;;;1.40;;
39848;SDS011;25518;47.878;15.914;2023-07-13T10:54:17;2.55;;;1.20;;
39848;SDS011;25518;47.878;15.914;2023-07-13T11:02:59;2.40;;;1.17;;
39848;SDS011;25518;47.878;15.914;2023-07-13T11:05:51;3.95;;;1.40;;
39848;SDS011;25518;47.878;15.914;2023-07-13T11:08:54;2.35;;;1.13;;
39848;SDS011;25518;47.878;15.914;2023-07-13T11:11:46;1.77;;;1.00;;
39848;SDS011;25518;47.878;15.914;2023-07-13T11:14:41;3.13;;;1.20;;
39848;SDS011;25518;47.878;15.914;2023-07-13T11:17:56;2.22;;;1.33;;
39848;SDS011;25518;47.878;15.914;2023-07-13T11:20:49;2.42;;;1.42;;
39848;SDS011;25518;47.878;15.914;2023-07-13T11:23:41;2.15;;;1.05;;
39848;SDS011;25518;47.878;15.914;2023-07-13T11:26:41;2.80;;;1.10;;
39848;SDS011;25518;47.878;15.914;2023-07-13T11:32:22;2.15;;;1.10;;
39848;SDS011;25518;47.878;15.914;2023-07-13T11:35:17;2.75;;;1.27;;
39848;SDS011;25518;47.878;15.914;2023-07-13T11:38:16;3.00;;;1.40;;
39848;SDS011;25518;47.878;15.914;2023-07-13T11:41:26;2.97;;;1.40;;
39848;SDS011;25518;47.878;15.914;2023-07-13T11:44:20;4.30;;;1.37;;
39848;SDS011;25518;47.878;15.914;2023-07-13T11:47:21;1.83;;;1.10;;
39848;SDS011;25518;47.878;15.914;2023-07-13T11:50:20;1.83;;;1.08;;
39848;SDS011;25518;47.878;15.914;2023-07-13T11:53:12;2.78;;;1.30;;
39848;SDS011;25518;47.878;15.914;2023-07-13T11:56:02;1.92;;;1.00;;
39848;SDS011;25518;47.878;15.914;2023-07-13T11:58:51;2.33;;;1.08;;
39848;SDS011;25518;47.878;15.914;2023-07-13T12:01:44;3.45;;;1.23;;
39848;SDS011;25518;47.878;15.914;2023-07-13T12:04:37;3.70;;;1.20;;
39848;SDS011;25518;47.878;15.914;2023-07-13T12:07:28;2.72;;;1.05;;
39848;SDS011;25518;47.878;15.914;2023-07-13T12:10:22;1.93;;;1.13;;
39848;SDS011;25518;47.878;15.914;2023-07-13T12:13:12;3.17;;;1.38;;
39848;SDS011;25518;47.878;15.914;2023-07-13T12:16:02;2.53;;;1.65;;
39848;SDS011;25518;47.878;15.914;2023-07-13T12:19:02;3.65;;;1.17;;
39848;SDS011;25518;47.878;15.914;2023-07-13T12:22:04;2.63;;;1.35;;
39848;SDS011;25518;47.878;15.914;2023-07-13T12:24:58;3.08;;;1.30;;
39848;SDS011;25518;47.878;15.914;2023-07-13T12:27:48;2.58;;;1.20;;
39848;SDS011;25518;47.878;15.914;2023-07-13T12:30:39;4.67;;;1.40;;
39848;SDS011;25518;47.878;15.914;2023-07-13T12:33:29;2.17;;;1.20;;
39848;SDS011;25518;47.878;15.914;2023-07-13T12:36:21;2.45;;;1.08;;
39848;SDS011;25518;47.878;15.914;2023-07-13T12:39:13;2.83;;;1.20;;
39848;SDS011;25518;47.878;15.914;2023-07-13T12:42:13;3.28;;;1.35;;
39848;SDS011;25518;47.878;15.914;2023-07-13T12:45:23;3.63;;;1.23;;
39848;SDS011;25518;47.878;15.914;2023-07-13T12:48:15;3.63;;;1.30;;
39848;SDS011;25518;47.878;15.914;2023-07-13T12:51:08;2.50;;;1.05;;
39848;SDS011;25518;47.878;15.914;2023-07-13T12:54:13;2.50;;;1.27;;
39848;SDS011;25518;47.878;15.914;2023-07-13T12:57:08;2.78;;;1.27;;
39848;SDS011;25518;47.878;15.914;2023-07-13T13:00:14;3.40;;;1.47;;
39848;SDS011;25518;47.878;15.914;2023-07-13T13:09:09;2.40;;;1.20;;
39848;SDS011;25518;47.878;15.914;2023-07-13T13:12:02;2.90;;;1.30;;
39848;SDS011;25518;47.878;15.914;2023-07-13T13:14:52;2.97;;;1.42;;
39848;SDS011;25518;47.878;15.914;2023-07-13T13:17:41;3.30;;;1.30;;
39848;SDS011;25518;47.878;15.914;2023-07-13T13:20:31;2.05;;;1.02;;
39848;SDS011;25518;47.878;15.914;2023-07-13T13:23:21;2.15;;;1.10;;
39848;SDS011;25518;47.878;15.914;2023-07-13T13:26:14;2.53;;;1.25;;
39848;SDS011;25518;47.878;15.914;2023-07-13T13:29:13;3.38;;;1.35;;
39848;SDS011;25518;47.878;15.914;2023-07-13T13:32:09;2.35;;;1.13;;
39848;SDS011;25518;47.878;15.914;2023-07-13T13:35:02;2.83;;;1.27;;
39848;SDS011;25518;47.878;15.914;2023-07-13T13:37:52;2.47;;;1.08;;
39848;SDS011;25518;47.878;15.914;2023-07-13T13:40:42;3.83;;;1.20;;
39848;SDS011;25518;47.878;15.914;2023-07-13T13:43:33;3.28;;;1.35;;
39848;SDS011;25518;47.878;15.914;2023-07-13T13:46:23;1.80;;;1.10;;
39848;SDS011;25518;47.878;15.914;2023-07-13T13:49:15;2.03;;;1.00;;
39848;SDS011;25518;47.878;15.914;2023-07-13T13:52:08;2.60;;;1.15;;
39848;SDS011;25518;47.878;15.914;2023-07-13T13:54:58;2.55;;;1.17;;
39848;SDS011;25518;47.878;15.914;2023-07-13T13:57:48;2.70;;;1.10;;
39848;SDS011;25518;47.878;15.914;2023-07-13T14:00:38;3.00;;;1.23;;
39848;SDS011;25518;47.878;15.914;2023-07-13T14:03:28;2.30;;;1.20;;
39848;SDS011;25518;47.878;15.914;2023-07-13T14:06:18;4.72;;;1.60;;
39848;SDS011;25518;47.878;15.914;2023-07-13T14:09:10;4.07;;;1.40;;
39848;SDS011;25518;47.878;15.914;2023-07-13T14:12:01;2.13;;;1.30;;
39848;SDS011;25518;47.878;15.914;2023-07-13T14:14:52;2.88;;;1.20;;
39848;SDS011;25518;47.878;15.914;2023-07-13T14:17:41;3.17;;;1.55;;
39848;SDS011;25518;47.878;15.914;2023-07-13T14:20:31;3.58;;;1.55;;
39848;SDS011;25518;47.878;15.914;2023-07-13T14:23:21;2.17;;;1.13;;
39848;SDS011;25518;47.878;15.914;2023-07-13T14:26:12;2.95;;;1.35;;
39848;SDS011;25518;47.878;15.914;2023-07-13T14:29:04;2.25;;;1.05;;
39848;SDS011;25518;47.878;15.914;2023-07-13T14:31:59;2.87;;;1.40;;
39848;SDS011;25518;47.878;15.914;2023-07-13T14:34:49;2.95;;;1.50;;
39848;SDS011;25518;47.878;15.914;2023-07-13T14:37:40;2.42;;;1.10;;
39848;SDS011;25518;47.878;15.914;2023-07-13T14:40:31;3.28;;;1.27;;
39848;SDS011;25518;47.878;15.914;2023-07-13T14:43:21;2.72;;;1.48;;
39848;SDS011;25518;47.878;15.914;2023-07-13T14:46:16;2.63;;;1.40;;
39848;SDS011;25518;47.878;15.914;2023-07-13T14:52:31;2.27;;;1.20;;
39848;SDS011;25518;47.878;15.914;2023-07-13T14:55:21;2.72;;;1.50;;
39848;SDS011;25518;47.878;15.914;2023-07-13T14:58:11;2.75;;;1.00;;
39848;SDS011;25518;47.878;15.914;2023-07-13T15:01:00;2.25;;;1.23;;
39848;SDS011;25518;47.878;15.914;2023-07-13T15:03:50;2.15;;;1.17;;
39848;SDS011;25518;47.878;15.914;2023-07-13T15:06:57;3.28;;;1.45;;
39848;SDS011;25518;47.878;15.914;2023-07-13T15:09:50;2.50;;;1.20;;
39848;SDS011;25518;47.878;15.914;2023-07-13T15:12:40;2.88;;;1.38;;
39848;SDS011;25518;47.878;15.914;2023-07-13T15:15:31;2.22;;;1.30;;
39848;SDS011;25518;47.878;15.914;2023-07-13T15:18:23;6.73;;;1.33;;
39848;SDS011;25518;47.878;15.914;2023-07-13T15:21:17;4.47;;;1.20;;
39848;SDS011;25518;47.878;15.914;2023-07-13T15:24:10;2.55;;;1.40;;
39848;SDS011;25518;47.878;15.914;2023-07-13T15:27:00;4.50;;;1.50;;
39848;SDS011;25518;47.878;15.914;2023-07-13T15:29:50;2.95;;;1.40;;
39848;SDS011;25518;47.878;15.914;2023-07-13T15:32:41;2.40;;;1.13;;
39848;SDS011;25518;47.878;15.914;2023-07-13T15:35:32;2.75;;;1.50;;
39848;SDS011;25518;47.878;15.914;2023-07-13T15:38:23;3.20;;;1.47;;
39848;SDS011;25518;47.878;15.914;2023-07-13T15:41:23;2.42;;;1.30;;
39848;SDS011;25518;47.878;15.914;2023-07-13T15:44:23;3.97;;;1.30;;
39848;SDS011;25518;47.878;15.914;2023-07-13T15:47:17;3.03;;;1.52;;
39848;SDS011;25518;47.878;15.914;2023-07-13T15:50:11;3.22;;;1.30;;
39848;SDS011;25518;47.878;15.914;2023-07-13T15:53:02;3.58;;;1.75;;
39848;SDS011;25518;47.878;15.914;2023-07-13T15:55:52;3.70;;;1.50;;
39848;SDS011;25518;47.878;15.914;2023-07-13T15:58:42;5.28;;;1.60;;
39848;SDS011;25518;47.878;15.914;2023-07-13T16:01:32;3.53;;;1.25;;
39848;SDS011;25518;47.878;15.914;2023-07-13T16:04:22;2.83;;;1.25;;
39848;SDS011;25518;47.878;15.914;2023-07-13T16:07:12;3.30;;;1.20;;
39848;SDS011;25518;47.878;15.914;2023-07-13T16:10:07;3.03;;;1.40;;
39848;SDS011;25518;47.878;15.914;2023-07-13T16:13:01;2.40;;;1.50;;
39848;SDS011;25518;47.878;15.914;2023-07-13T16:15:53;2.97;;;1.20;;
39848;SDS011;25518;47.878;15.914;2023-07-13T16:18:45;2.85;;;1.55;;
39848;SDS011;25518;47.878;15.914;2023-07-13T16:21:36;4.22;;;1.33;;
39848;SDS011;25518;47.878;15.914;2023-07-13T16:24:37;3.27;;;1.40;;
39848;SDS011;25518;47.878;15.914;2023-07-13T16:27:26;3.72;;;1.30;;
39848;SDS011;25518;47.878;15.914;2023-07-13T16:30:18;3.42;;;1.35;;
39848;SDS011;25518;47.878;15.914;2023-07-13T16:33:11;1.80;;;1.02;;
39848;SDS011;25518;47.878;15.914;2023-07-13T16:36:00;4.22;;;1.10;;
39848;SDS011;25518;47.878;15.914;2023-07-13T16:38:51;3.13;;;1.30;;
39848;SDS011;25518;47.878;15.914;2023-07-13T16:41:40;1.85;;;1.10;;
39848;SDS011;25518;47.878;15.914;2023-07-13T16:44:31;2.47;;;1.30;;
39848;SDS011;25518;47.878;15.914;2023-07-13T16:47:21;2.88;;;1.50;;
39848;SDS011;25518;47.878;15.914;2023-07-13T16:50:21;3.63;;;1.60;;
39848;SDS011;25518;47.878;15.914;2023-07-13T16:53:18;5.68;;;2.00;;
39848;SDS011;25518;47.878;15.914;2023-07-13T16:56:13;8.32;;;3.25;;
39848;SDS011;25518;47.878;15.914;2023-07-13T16:59:11;7.60;;;3.40;;
39848;SDS011;25518;47.878;15.914;2023-07-13T17:02:21;3.25;;;1.70;;
39848;SDS011;25518;47.878;15.914;2023-07-13T17:05:23;2.83;;;1.45;;
39848;SDS011;25518;47.878;15.914;2023-07-13T17:08:15;4.43;;;1.98;;
39848;SDS011;25518;47.878;15.914;2023-07-13T17:11:08;2.67;;;1.33;;
39848;SDS011;25518;47.878;15.914;2023-07-13T17:13:58;7.13;;;3.03;;
39848;SDS011;25518;47.878;15.914;2023-07-13T17:16:48;4.70;;;2.25;;
39848;SDS011;25518;47.878;15.914;2023-07-13T17:19:39;3.15;;;1.60;;
39848;SDS011;25518;47.878;15.914;2023-07-13T17:22:29;4.60;;;1.50;;
39848;SDS011;25518;47.878;15.914;2023-07-13T17:25:19;6.00;;;1.80;;
39848;SDS011;25518;47.878;15.914;2023-07-13T17:28:11;7.35;;;2.92;;
39848;SDS011;25518;47.878;15.914;2023-07-13T17:31:06;7.22;;;3.40;;
39848;SDS011;25518;47.878;15.914;2023-07-13T17:33:56;5.78;;;2.90;;
39848;SDS011;25518;47.878;15.914;2023-07-13T17:36:46;7.20;;;2.53;;
39848;SDS011;25518;47.878;15.914;2023-07-13T17:39:36;3.92;;;1.98;;
39848;SDS011;25518;47.878;15.914;2023-07-13T17:42:26;3.83;;;1.80;;
39848;SDS011;25518;47.878;15.914;2023-07-13T17:45:15;2.63;;;1.35;;
39848;SDS011;25518;47.878;15.914;2023-07-13T17:48:08;3.78;;;1.70;;
39848;SDS011;25518;47.878;15.914;2023-07-13T17:51:00;4.18;;;1.83;;